sensor_id;sensor_type;location;lat;lon;timestamp;P1;durP1;ratioP1;P2;durP2;ratioP2
17598;SDS011;8918;52.092;5.232;2023-03-31T00:01:57;11.20;;;3.43;;
17598;SDS011;8918;52.092;5.232;2023-03-31T00:04:23;9.93;;;3.37;;
17598;SDS011;8918;52.092;5.232;2023-03-31T00:06:50;10.70;;;3.33;;
17598;SDS011;8918;52.092;5.232;2023-03-31T00:09:18;11.07;;;3.37;;
17598;SDS011;8918;52.092;5.232;2023-03-31T00:11:46;12.53;;;3.83;;
17598;SDS011;8918;52.092;5.232;2023-03-31T00:14:13;11.97;;;3.17;;
17598;SDS011;8918;52.092;5.232;2023-03-31T00:16:41;8.87;;;3.07;;
17598;SDS011;8918;52.092;5.232;2023-03-31T00:19:06;11.70;;;3.47;;
17598;SDS011;8918;52.092;5.232;2023-03-31T00:21:34;9.03;;;3.10;;
17598;SDS011;8918;52.092;5.232;2023-03-31T00:24:08;11.90;;;3.43;;
17598;SDS011;8918;52.092;5.232;2023-03-31T00:26:35;9.93;;;2.87;;
17598;SDS011;8918;52.092;5.232;2023-03-31T00:29:01;12.33;;;3.37;;
17598;SDS011;8918;52.092;5.232;2023-03-31T00:31:27;15.63;;;3.80;;
17598;SDS011;8918;52.092;5.232;2023-03-31T00:33:53;10.43;;;3.47;;
17598;SDS011;8918;52.092;5.232;2023-03-31T00:36:19;13.27;;;3.23;;
17598;SDS011;8918;52.092;5.232;2023-03-31T00:38:51;9.83;;;2.83;;
17598;SDS011;8918;52.092;5.232;2023-03-31T00:41:30;10.70;;;3.43;;
17598;SDS011;8918;52.092;5.232;2023-03-31T00:44:15;10.47;;;3.07;;
17598;SDS011;8918;52.092;5.232;2023-03-31T00:46:53;10.17;;;3.17;;
17598;SDS011;8918;52.092;5.232;2023-03-31T00:52:03;9.80;;;3.10;;
17598;SDS011;8918;52.092;5.232;2023-03-31T00:54:40;10.03;;;2.80;;
17598;SDS011;8918;52.092;5.232;2023-03-31T00:57:08;10.43;;;3.00;;
17598;SDS011;8918;52.092;5.232;2023-03-31T00:59:36;13.47;;;3.10;;
17598;SDS011;8918;52.092;5.232;2023-03-31T01:02:04;11.83;;;2.97;;
17598;SDS011;8918;52.092;5.232;2023-03-31T01:04:34;12.00;;;2.77;;
17598;SDS011;8918;52.092;5.232;2023-03-31T01:07:19;12.40;;;2.93;;
17598;SDS011;8918;52.092;5.232;2023-03-31T01:10:05;8.53;;;2.63;;
17598;SDS011;8918;52.092;5.232;2023-03-31T01:12:31;9.33;;;2.50;;
17598;SDS011;8918;52.092;5.232;2023-03-31T01:15:00;8.40;;;2.87;;
17598;SDS011;8918;52.092;5.232;2023-03-31T01:17:28;9.90;;;2.70;;
17598;SDS011;8918;52.092;5.232;2023-03-31T01:40:34;10.70;;;3.07;;
17598;SDS011;8918;52.092;5.232;2023-03-31T01:43:09;9.00;;;3.43;;
17598;SDS011;8918;52.092;5.232;2023-03-31T01:48:53;8.83;;;3.20;;
17598;SDS011;8918;52.092;5.232;2023-03-31T01:54:36;9.90;;;3.53;;
17598;SDS011;8918;52.092;5.232;2023-03-31T02:00:00;11.87;;;3.93;;
17598;SDS011;8918;52.092;5.232;2023-03-31T02:02:37;11.27;;;3.90;;
17598;SDS011;8918;52.092;5.232;2023-03-31T02:05:25;9.43;;;3.87;;
17598;SDS011;8918;52.092;5.232;2023-03-31T02:07:57;11.00;;;4.07;;
17598;SDS011;8918;52.092;5.232;2023-03-31T02:10:28;11.90;;;3.93;;
17598;SDS011;8918;52.092;5.232;2023-03-31T02:12:57;11.97;;;3.87;;
17598;SDS011;8918;52.092;5.232;2023-03-31T02:15:26;11.37;;;4.13;;
17598;SDS011;8918;52.092;5.232;2023-03-31T02:17:56;11.67;;;4.30;;
17598;SDS011;8918;52.092;5.232;2023-03-31T02:20:23;11.37;;;4.00;;
17598;SDS011;8918;52.092;5.232;2023-03-31T02:22:53;13.83;;;4.07;;
17598;SDS011;8918;52.092;5.232;2023-03-31T02:25:28;12.33;;;3.93;;
17598;SDS011;8918;52.092;5.232;2023-03-31T02:28:01;11.70;;;3.83;;
17598;SDS011;8918;52.092;5.232;2023-03-31T02:30:35;11.10;;;3.80;;
17598;SDS011;8918;52.092;5.232;2023-03-31T02:33:09;14.17;;;4.10;;
17598;SDS011;8918;52.092;5.232;2023-03-31T02:35:34;11.37;;;4.13;;
17598;SDS011;8918;52.092;5.232;2023-03-31T02:38:00;14.70;;;3.93;;
17598;SDS011;8918;52.092;5.232;2023-03-31T02:40:26;13.90;;;4.57;;
17598;SDS011;8918;52.092;5.232;2023-03-31T02:42:52;8.87;;;3.93;;
17598;SDS011;8918;52.092;5.232;2023-03-31T02:48:54;13.47;;;3.70;;
17598;SDS011;8918;52.092;5.232;2023-03-31T02:53:47;13.13;;;3.63;;
17598;SDS011;8918;52.092;5.232;2023-03-31T03:04:35;15.33;;;3.90;;
17598;SDS011;8918;52.092;5.232;2023-03-31T03:07:44;15.87;;;3.63;;
17598;SDS011;8918;52.092;5.232;2023-03-31T03:10:34;13.87;;;3.50;;
17598;SDS011;8918;52.092;5.232;2023-03-31T03:15:24;8.93;;;3.33;;
17598;SDS011;8918;52.092;5.232;2023-03-31T03:17:55;12.13;;;3.47;;
17598;SDS011;8918;52.092;5.232;2023-03-31T03:20:22;11.10;;;3.80;;
17598;SDS011;8918;52.092;5.232;2023-03-31T03:22:47;10.83;;;3.27;;
17598;SDS011;8918;52.092;5.232;2023-03-31T03:25:13;10.03;;;3.33;;
17598;SDS011;8918;52.092;5.232;2023-03-31T03:27:44;12.37;;;3.47;;
17598;SDS011;8918;52.092;5.232;2023-03-31T03:30:11;9.70;;;3.83;;
17598;SDS011;8918;52.092;5.232;2023-03-31T03:32:37;13.73;;;3.63;;
17598;SDS011;8918;52.092;5.232;2023-03-31T03:35:03;9.37;;;3.17;;
17598;SDS011;8918;52.092;5.232;2023-03-31T03:37:30;10.30;;;3.20;;
17598;SDS011;8918;52.092;5.232;2023-03-31T03:39:56;11.17;;;3.80;;
17598;SDS011;8918;52.092;5.232;2023-03-31T03:42:22;12.80;;;3.23;;
17598;SDS011;8918;52.092;5.232;2023-03-31T03:44:47;10.30;;;3.13;;
17598;SDS011;8918;52.092;5.232;2023-03-31T03:47:13;13.20;;;3.37;;
17598;SDS011;8918;52.092;5.232;2023-03-31T03:49:39;9.70;;;3.20;;
17598;SDS011;8918;52.092;5.232;2023-03-31T03:52:05;10.67;;;3.40;;
17598;SDS011;8918;52.092;5.232;2023-03-31T03:54:31;9.97;;;2.70;;
17598;SDS011;8918;52.092;5.232;2023-03-31T03:56:56;9.67;;;2.83;;
17598;SDS011;8918;52.092;5.232;2023-03-31T03:59:22;13.57;;;3.07;;
17598;SDS011;8918;52.092;5.232;2023-03-31T04:01:48;11.13;;;2.87;;
17598;SDS011;8918;52.092;5.232;2023-03-31T04:04:14;13.17;;;3.47;;
17598;SDS011;8918;52.092;5.232;2023-03-31T04:06:40;7.40;;;2.50;;
17598;SDS011;8918;52.092;5.232;2023-03-31T04:09:06;8.67;;;2.53;;
17598;SDS011;8918;52.092;5.232;2023-03-31T04:11:32;7.50;;;2.10;;
17598;SDS011;8918;52.092;5.232;2023-03-31T04:13:57;7.97;;;2.10;;
17598;SDS011;8918;52.092;5.232;2023-03-31T04:16:23;8.00;;;2.80;;
17598;SDS011;8918;52.092;5.232;2023-03-31T04:18:49;9.87;;;2.70;;
17598;SDS011;8918;52.092;5.232;2023-03-31T04:21:17;6.57;;;2.10;;
17598;SDS011;8918;52.092;5.232;2023-03-31T04:23:49;7.93;;;2.20;;
17598;SDS011;8918;52.092;5.232;2023-03-31T04:26:23;9.37;;;2.80;;
17598;SDS011;8918;52.092;5.232;2023-03-31T04:28:55;5.07;;;1.80;;
17598;SDS011;8918;52.092;5.232;2023-03-31T04:31:24;5.77;;;2.07;;
17598;SDS011;8918;52.092;5.232;2023-03-31T04:33:51;5.93;;;2.30;;
17598;SDS011;8918;52.092;5.232;2023-03-31T04:36:17;7.57;;;2.30;;
17598;SDS011;8918;52.092;5.232;2023-03-31T04:38:43;8.60;;;2.30;;
17598;SDS011;8918;52.092;5.232;2023-03-31T04:41:15;6.23;;;2.20;;
17598;SDS011;8918;52.092;5.232;2023-03-31T04:43:40;11.63;;;2.47;;
17598;SDS011;8918;52.092;5.232;2023-03-31T04:46:06;9.87;;;2.30;;
17598;SDS011;8918;52.092;5.232;2023-03-31T04:48:32;9.80;;;2.67;;
17598;SDS011;8918;52.092;5.232;2023-03-31T04:50:58;11.87;;;3.07;;
17598;SDS011;8918;52.092;5.232;2023-03-31T04:53:23;9.00;;;2.67;;
17598;SDS011;8918;52.092;5.232;2023-03-31T04:55:50;9.53;;;2.80;;
17598;SDS011;8918;52.092;5.232;2023-03-31T04:58:16;9.77;;;2.87;;
17598;SDS011;8918;52.092;5.232;2023-03-31T05:00:42;7.17;;;2.57;;
17598;SDS011;8918;52.092;5.232;2023-03-31T05:03:07;11.90;;;3.27;;
17598;SDS011;8918;52.092;5.232;2023-03-31T05:05:33;9.63;;;2.70;;
17598;SDS011;8918;52.092;5.232;2023-03-31T05:08:00;10.13;;;2.27;;
17598;SDS011;8918;52.092;5.232;2023-03-31T05:10:26;9.27;;;2.80;;
17598;SDS011;8918;52.092;5.232;2023-03-31T05:12:51;8.27;;;2.47;;
17598;SDS011;8918;52.092;5.232;2023-03-31T05:15:17;10.60;;;2.70;;
17598;SDS011;8918;52.092;5.232;2023-03-31T05:17:42;7.47;;;2.33;;
17598;SDS011;8918;52.092;5.232;2023-03-31T05:20:09;7.57;;;2.33;;
17598;SDS011;8918;52.092;5.232;2023-03-31T05:22:36;9.00;;;2.20;;
17598;SDS011;8918;52.092;5.232;2023-03-31T05:25:02;7.57;;;2.40;;
17598;SDS011;8918;52.092;5.232;2023-03-31T05:27:30;6.33;;;2.10;;
17598;SDS011;8918;52.092;5.232;2023-03-31T05:29:56;7.50;;;2.50;;
17598;SDS011;8918;52.092;5.232;2023-03-31T05:32:22;7.80;;;2.50;;
17598;SDS011;8918;52.092;5.232;2023-03-31T05:34:48;6.03;;;2.30;;
17598;SDS011;8918;52.092;5.232;2023-03-31T05:37:16;8.13;;;2.40;;
17598;SDS011;8918;52.092;5.232;2023-03-31T05:39:42;6.37;;;2.40;;
17598;SDS011;8918;52.092;5.232;2023-03-31T05:42:08;6.77;;;2.50;;
17598;SDS011;8918;52.092;5.232;2023-03-31T05:44:33;8.27;;;2.37;;
17598;SDS011;8918;52.092;5.232;2023-03-31T05:46:59;7.67;;;2.43;;
17598;SDS011;8918;52.092;5.232;2023-03-31T05:49:25;14.73;;;3.23;;
17598;SDS011;8918;52.092;5.232;2023-03-31T05:51:50;9.33;;;3.33;;
17598;SDS011;8918;52.092;5.232;2023-03-31T05:54:17;6.30;;;2.50;;
17598;SDS011;8918;52.092;5.232;2023-03-31T05:56:43;13.27;;;3.40;;
17598;SDS011;8918;52.092;5.232;2023-03-31T05:59:08;9.40;;;2.60;;
17598;SDS011;8918;52.092;5.232;2023-03-31T06:01:34;10.07;;;2.70;;
17598;SDS011;8918;52.092;5.232;2023-03-31T06:03:59;15.83;;;4.03;;
17598;SDS011;8918;52.092;5.232;2023-03-31T06:06:25;7.97;;;2.33;;
17598;SDS011;8918;52.092;5.232;2023-03-31T06:08:51;8.77;;;2.60;;
17598;SDS011;8918;52.092;5.232;2023-03-31T06:11:18;9.13;;;2.50;;
17598;SDS011;8918;52.092;5.232;2023-03-31T06:13:46;8.17;;;2.30;;
17598;SDS011;8918;52.092;5.232;2023-03-31T06:16:13;8.40;;;2.13;;
17598;SDS011;8918;52.092;5.232;2023-03-31T06:18:40;6.80;;;1.77;;
17598;SDS011;8918;52.092;5.232;2023-03-31T06:21:07;5.30;;;1.93;;
17598;SDS011;8918;52.092;5.232;2023-03-31T06:23:38;4.87;;;1.80;;
17598;SDS011;8918;52.092;5.232;2023-03-31T06:26:04;4.70;;;1.87;;
17598;SDS011;8918;52.092;5.232;2023-03-31T06:28:32;6.80;;;2.27;;
17598;SDS011;8918;52.092;5.232;2023-03-31T06:31:01;5.13;;;1.70;;
17598;SDS011;8918;52.092;5.232;2023-03-31T06:33:32;8.87;;;2.10;;
17598;SDS011;8918;52.092;5.232;2023-03-31T06:35:58;5.20;;;1.70;;
17598;SDS011;8918;52.092;5.232;2023-03-31T06:38:25;3.93;;;1.90;;
17598;SDS011;8918;52.092;5.232;2023-03-31T06:40:52;5.83;;;1.50;;
17598;SDS011;8918;52.092;5.232;2023-03-31T06:43:18;5.53;;;1.63;;
17598;SDS011;8918;52.092;5.232;2023-03-31T06:45:44;4.63;;;1.60;;
17598;SDS011;8918;52.092;5.232;2023-03-31T06:48:10;5.60;;;2.03;;
17598;SDS011;8918;52.092;5.232;2023-03-31T06:50:36;7.07;;;1.70;;
17598;SDS011;8918;52.092;5.232;2023-03-31T06:53:03;4.93;;;1.47;;
17598;SDS011;8918;52.092;5.232;2023-03-31T06:55:29;6.73;;;2.00;;
17598;SDS011;8918;52.092;5.232;2023-03-31T06:57:54;4.50;;;1.30;;
17598;SDS011;8918;52.092;5.232;2023-03-31T07:00:20;3.00;;;1.50;;
17598;SDS011;8918;52.092;5.232;2023-03-31T07:02:46;4.20;;;1.50;;
17598;SDS011;8918;52.092;5.232;2023-03-31T07:05:11;5.97;;;1.77;;
17598;SDS011;8918;52.092;5.232;2023-03-31T07:07:37;6.43;;;1.50;;
17598;SDS011;8918;52.092;5.232;2023-03-31T07:10:03;4.50;;;1.40;;
17598;SDS011;8918;52.092;5.232;2023-03-31T07:12:31;4.80;;;1.30;;
17598;SDS011;8918;52.092;5.232;2023-03-31T07:14:57;3.83;;;1.30;;
17598;SDS011;8918;52.092;5.232;2023-03-31T07:17:23;8.97;;;2.17;;
17598;SDS011;8918;52.092;5.232;2023-03-31T07:19:49;3.87;;;1.30;;
17598;SDS011;8918;52.092;5.232;2023-03-31T07:22:17;4.97;;;1.53;;
17598;SDS011;8918;52.092;5.232;2023-03-31T07:24:43;6.97;;;1.70;;
17598;SDS011;8918;52.092;5.232;2023-03-31T07:27:08;2.90;;;1.33;;
17598;SDS011;8918;52.092;5.232;2023-03-31T07:29:34;6.27;;;1.87;;
17598;SDS011;8918;52.092;5.232;2023-03-31T07:32:00;6.53;;;1.73;;
17598;SDS011;8918;52.092;5.232;2023-03-31T07:34:26;5.23;;;1.50;;
17598;SDS011;8918;52.092;5.232;2023-03-31T07:36:54;5.00;;;1.50;;
17598;SDS011;8918;52.092;5.232;2023-03-31T07:39:20;5.30;;;1.50;;
17598;SDS011;8918;52.092;5.232;2023-03-31T07:41:46;4.17;;;1.40;;
17598;SDS011;8918;52.092;5.232;2023-03-31T07:44:12;4.07;;;1.70;;
17598;SDS011;8918;52.092;5.232;2023-03-31T07:46:38;5.37;;;1.87;;
17598;SDS011;8918;52.092;5.232;2023-03-31T07:49:04;5.07;;;1.73;;
17598;SDS011;8918;52.092;5.232;2023-03-31T07:51:31;3.20;;;1.70;;
17598;SDS011;8918;52.092;5.232;2023-03-31T07:53:57;6.97;;;1.80;;
17598;SDS011;8918;52.092;5.232;2023-03-31T07:56:23;5.70;;;1.73;;
17598;SDS011;8918;52.092;5.232;2023-03-31T07:58:49;4.67;;;1.70;;
17598;SDS011;8918;52.092;5.232;2023-03-31T08:01:18;5.07;;;2.00;;
17598;SDS011;8918;52.092;5.232;2023-03-31T08:03:46;8.30;;;2.13;;
17598;SDS011;8918;52.092;5.232;2023-03-31T08:06:19;4.50;;;1.90;;
17598;SDS011;8918;52.092;5.232;2023-03-31T08:08:46;7.23;;;2.17;;
17598;SDS011;8918;52.092;5.232;2023-03-31T08:11:12;5.97;;;2.23;;
17598;SDS011;8918;52.092;5.232;2023-03-31T08:13:38;6.43;;;2.77;;
17598;SDS011;8918;52.092;5.232;2023-03-31T08:16:03;6.87;;;2.27;;
17598;SDS011;8918;52.092;5.232;2023-03-31T08:18:29;6.30;;;2.43;;
17598;SDS011;8918;52.092;5.232;2023-03-31T08:20:55;7.00;;;2.53;;
17598;SDS011;8918;52.092;5.232;2023-03-31T08:23:21;9.40;;;3.00;;
17598;SDS011;8918;52.092;5.232;2023-03-31T08:25:46;7.60;;;2.77;;
17598;SDS011;8918;52.092;5.232;2023-03-31T08:28:12;4.83;;;3.00;;
17598;SDS011;8918;52.092;5.232;2023-03-31T08:30:41;7.00;;;3.50;;
17598;SDS011;8918;52.092;5.232;2023-03-31T08:33:07;7.07;;;3.70;;
17598;SDS011;8918;52.092;5.232;2023-03-31T08:35:33;7.80;;;3.23;;
17598;SDS011;8918;52.092;5.232;2023-03-31T08:37:59;8.27;;;3.70;;
17598;SDS011;8918;52.092;5.232;2023-03-31T08:40:25;8.80;;;3.73;;
17598;SDS011;8918;52.092;5.232;2023-03-31T08:42:56;9.20;;;3.60;;
17598;SDS011;8918;52.092;5.232;2023-03-31T08:45:31;8.47;;;3.33;;
17598;SDS011;8918;52.092;5.232;2023-03-31T08:48:04;8.77;;;3.23;;
17598;SDS011;8918;52.092;5.232;2023-03-31T08:50:38;11.97;;;3.63;;
17598;SDS011;8918;52.092;5.232;2023-03-31T08:58:23;14.33;;;4.13;;
17598;SDS011;8918;52.092;5.232;2023-03-31T09:01:06;12.07;;;4.20;;
17598;SDS011;8918;52.092;5.232;2023-03-31T09:03:46;16.20;;;4.23;;
17598;SDS011;8918;52.092;5.232;2023-03-31T09:06:29;13.93;;;4.30;;
17598;SDS011;8918;52.092;5.232;2023-03-31T09:09:04;13.00;;;4.37;;
17598;SDS011;8918;52.092;5.232;2023-03-31T09:11:35;14.23;;;3.97;;
17598;SDS011;8918;52.092;5.232;2023-03-31T09:17:01;14.63;;;3.47;;
17598;SDS011;8918;52.092;5.232;2023-03-31T09:19:52;13.97;;;4.07;;
17598;SDS011;8918;52.092;5.232;2023-03-31T09:22:23;15.03;;;3.97;;
17598;SDS011;8918;52.092;5.232;2023-03-31T09:27:27;15.13;;;3.70;;
17598;SDS011;8918;52.092;5.232;2023-03-31T09:32:34;16.43;;;4.23;;
17598;SDS011;8918;52.092;5.232;2023-03-31T09:37:49;10.83;;;3.50;;
17598;SDS011;8918;52.092;5.232;2023-03-31T09:40:22;14.83;;;3.60;;
17598;SDS011;8918;52.092;5.232;2023-03-31T09:45:26;12.90;;;3.60;;
17598;SDS011;8918;52.092;5.232;2023-03-31T09:47:53;11.73;;;3.90;;
17598;SDS011;8918;52.092;5.232;2023-03-31T09:50:21;15.30;;;3.73;;
17598;SDS011;8918;52.092;5.232;2023-03-31T09:52:48;14.73;;;3.80;;
17598;SDS011;8918;52.092;5.232;2023-03-31T09:55:28;10.37;;;3.60;;
17598;SDS011;8918;52.092;5.232;2023-03-31T09:58:05;13.23;;;3.83;;
17598;SDS011;8918;52.092;5.232;2023-03-31T10:00:32;9.93;;;3.60;;
17598;SDS011;8918;52.092;5.232;2023-03-31T10:03:00;12.33;;;3.80;;
17598;SDS011;8918;52.092;5.232;2023-03-31T10:10:49;10.23;;;3.60;;
17598;SDS011;8918;52.092;5.232;2023-03-31T10:13:22;13.93;;;4.30;;
17598;SDS011;8918;52.092;5.232;2023-03-31T10:16:05;8.50;;;3.43;;
17598;SDS011;8918;52.092;5.232;2023-03-31T10:18:38;13.60;;;3.90;;
17598;SDS011;8918;52.092;5.232;2023-03-31T10:21:06;11.10;;;3.60;;
17598;SDS011;8918;52.092;5.232;2023-03-31T10:23:41;11.03;;;3.53;;
17598;SDS011;8918;52.092;5.232;2023-03-31T10:26:12;14.13;;;3.40;;
17598;SDS011;8918;52.092;5.232;2023-03-31T10:28:43;11.80;;;3.10;;
17598;SDS011;8918;52.092;5.232;2023-03-31T10:31:09;10.43;;;3.20;;
17598;SDS011;8918;52.092;5.232;2023-03-31T10:33:38;10.47;;;3.20;;
17598;SDS011;8918;52.092;5.232;2023-03-31T10:36:30;13.80;;;3.40;;
17598;SDS011;8918;52.092;5.232;2023-03-31T10:38:55;8.80;;;2.80;;
17598;SDS011;8918;52.092;5.232;2023-03-31T10:41:26;9.20;;;2.97;;
17598;SDS011;8918;52.092;5.232;2023-03-31T10:43:54;9.77;;;2.87;;
17598;SDS011;8918;52.092;5.232;2023-03-31T10:46:38;11.00;;;2.97;;
17598;SDS011;8918;52.092;5.232;2023-03-31T10:49:25;9.60;;;2.87;;
17598;SDS011;8918;52.092;5.232;2023-03-31T10:51:52;10.13;;;2.90;;
17598;SDS011;8918;52.092;5.232;2023-03-31T10:54:19;10.03;;;2.97;;
17598;SDS011;8918;52.092;5.232;2023-03-31T10:56:46;9.37;;;3.03;;
17598;SDS011;8918;52.092;5.232;2023-03-31T11:26:01;12.93;;;2.87;;
17598;SDS011;8918;52.092;5.232;2023-03-31T11:34:02;12.03;;;2.83;;
17598;SDS011;8918;52.092;5.232;2023-03-31T11:42:10;8.87;;;2.30;;
17598;SDS011;8918;52.092;5.232;2023-03-31T11:44:43;12.07;;;3.10;;
17598;SDS011;8918;52.092;5.232;2023-03-31T11:47:21;12.63;;;2.90;;
17598;SDS011;8918;52.092;5.232;2023-03-31T11:49:59;11.87;;;2.87;;
17598;SDS011;8918;52.092;5.232;2023-03-31T11:52:36;11.93;;;2.93;;
17598;SDS011;8918;52.092;5.232;2023-03-31T11:55:18;13.97;;;3.03;;
17598;SDS011;8918;52.092;5.232;2023-03-31T11:57:57;10.07;;;2.97;;
17598;SDS011;8918;52.092;5.232;2023-03-31T12:00:31;10.40;;;2.70;;
17598;SDS011;8918;52.092;5.232;2023-03-31T12:05:50;11.90;;;2.47;;
17598;SDS011;8918;52.092;5.232;2023-03-31T12:08:33;8.97;;;2.60;;
17598;SDS011;8918;52.092;5.232;2023-03-31T12:11:09;9.90;;;2.60;;
17598;SDS011;8918;52.092;5.232;2023-03-31T12:16:21;9.17;;;2.70;;
17598;SDS011;8918;52.092;5.232;2023-03-31T12:21:39;9.80;;;2.37;;
17598;SDS011;8918;52.092;5.232;2023-03-31T12:24:11;10.17;;;2.67;;
17598;SDS011;8918;52.092;5.232;2023-03-31T12:29:31;13.33;;;2.63;;
17598;SDS011;8918;52.092;5.232;2023-03-31T12:32:19;10.20;;;2.80;;
17598;SDS011;8918;52.092;5.232;2023-03-31T12:34:53;7.43;;;2.40;;
17598;SDS011;8918;52.092;5.232;2023-03-31T12:37:45;6.97;;;2.40;;
17598;SDS011;8918;52.092;5.232;2023-03-31T12:43:10;8.50;;;2.50;;
17598;SDS011;8918;52.092;5.232;2023-03-31T12:51:58;9.67;;;2.10;;
17598;SDS011;8918;52.092;5.232;2023-03-31T12:59:34;6.97;;;2.40;;
17598;SDS011;8918;52.092;5.232;2023-03-31T13:04:39;10.67;;;3.07;;
17598;SDS011;8918;52.092;5.232;2023-03-31T13:07:13;10.73;;;3.40;;
17598;SDS011;8918;52.092;5.232;2023-03-31T13:15:30;10.30;;;3.20;;
17598;SDS011;8918;52.092;5.232;2023-03-31T13:17:58;12.20;;;3.33;;
17598;SDS011;8918;52.092;5.232;2023-03-31T13:20:28;12.90;;;3.37;;
17598;SDS011;8918;52.092;5.232;2023-03-31T13:22:59;8.97;;;2.83;;
17598;SDS011;8918;52.092;5.232;2023-03-31T13:28:12;11.17;;;3.50;;
17598;SDS011;8918;52.092;5.232;2023-03-31T13:35:43;10.13;;;2.50;;
17598;SDS011;8918;52.092;5.232;2023-03-31T13:41:12;8.97;;;2.47;;
17598;SDS011;8918;52.092;5.232;2023-03-31T13:52:09;8.20;;;2.83;;
17598;SDS011;8918;52.092;5.232;2023-03-31T14:00:33;5.97;;;2.53;;
17598;SDS011;8918;52.092;5.232;2023-03-31T14:11:16;8.03;;;2.40;;
17598;SDS011;8918;52.092;5.232;2023-03-31T14:13:42;6.37;;;2.80;;
17598;SDS011;8918;52.092;5.232;2023-03-31T14:16:08;7.27;;;2.70;;
17598;SDS011;8918;52.092;5.232;2023-03-31T14:18:35;6.37;;;2.53;;
17598;SDS011;8918;52.092;5.232;2023-03-31T14:23:47;9.90;;;2.60;;
17598;SDS011;8918;52.092;5.232;2023-03-31T14:29:08;9.63;;;2.63;;
17598;SDS011;8918;52.092;5.232;2023-03-31T14:34:55;9.37;;;2.73;;
17598;SDS011;8918;52.092;5.232;2023-03-31T14:37:28;6.20;;;2.20;;
17598;SDS011;8918;52.092;5.232;2023-03-31T14:39:54;5.13;;;2.43;;
17598;SDS011;8918;52.092;5.232;2023-03-31T14:42:28;5.80;;;2.37;;
17598;SDS011;8918;52.092;5.232;2023-03-31T14:45:02;5.37;;;2.00;;
17598;SDS011;8918;52.092;5.232;2023-03-31T14:47:33;4.17;;;1.90;;
17598;SDS011;8918;52.092;5.232;2023-03-31T14:52:39;4.27;;;1.83;;
17598;SDS011;8918;52.092;5.232;2023-03-31T14:55:12;3.00;;;1.67;;
17598;SDS011;8918;52.092;5.232;2023-03-31T14:57:39;3.50;;;1.50;;
17598;SDS011;8918;52.092;5.232;2023-03-31T15:00:07;2.90;;;1.30;;
17598;SDS011;8918;52.092;5.232;2023-03-31T15:02:39;3.90;;;1.60;;
17598;SDS011;8918;52.092;5.232;2023-03-31T15:05:25;4.93;;;1.90;;
17598;SDS011;8918;52.092;5.232;2023-03-31T15:07:55;5.43;;;1.70;;
17598;SDS011;8918;52.092;5.232;2023-03-31T15:10:32;5.27;;;1.90;;
17598;SDS011;8918;52.092;5.232;2023-03-31T15:13:08;4.10;;;1.63;;
17598;SDS011;8918;52.092;5.232;2023-03-31T15:15:35;3.23;;;1.80;;
17598;SDS011;8918;52.092;5.232;2023-03-31T15:18:01;3.53;;;1.80;;
17598;SDS011;8918;52.092;5.232;2023-03-31T15:20:28;3.20;;;1.90;;
17598;SDS011;8918;52.092;5.232;2023-03-31T15:23:17;6.20;;;2.60;;
17598;SDS011;8918;52.092;5.232;2023-03-31T15:25:48;3.53;;;1.90;;
17598;SDS011;8918;52.092;5.232;2023-03-31T15:28:20;3.83;;;1.70;;
17598;SDS011;8918;52.092;5.232;2023-03-31T15:30:47;5.03;;;1.70;;
17598;SDS011;8918;52.092;5.232;2023-03-31T15:33:17;4.00;;;1.80;;
17598;SDS011;8918;52.092;5.232;2023-03-31T15:35:48;4.13;;;1.77;;
17598;SDS011;8918;52.092;5.232;2023-03-31T15:38:14;3.97;;;1.80;;
17598;SDS011;8918;52.092;5.232;2023-03-31T15:40:42;3.53;;;1.97;;
17598;SDS011;8918;52.092;5.232;2023-03-31T15:43:13;4.00;;;1.67;;
17598;SDS011;8918;52.092;5.232;2023-03-31T15:45:52;5.47;;;2.30;;
17598;SDS011;8918;52.092;5.232;2023-03-31T15:48:29;4.90;;;2.00;;
17598;SDS011;8918;52.092;5.232;2023-03-31T15:50:59;4.60;;;1.93;;
17598;SDS011;8918;52.092;5.232;2023-03-31T15:53:47;4.70;;;1.90;;
17598;SDS011;8918;52.092;5.232;2023-03-31T15:56:24;4.20;;;1.80;;
17598;SDS011;8918;52.092;5.232;2023-03-31T15:58:53;3.97;;;2.13;;
17598;SDS011;8918;52.092;5.232;2023-03-31T16:01:30;3.40;;;2.07;;
17598;SDS011;8918;52.092;5.232;2023-03-31T16:03:59;4.37;;;2.10;;
17598;SDS011;8918;52.092;5.232;2023-03-31T16:12:16;4.47;;;2.50;;
17598;SDS011;8918;52.092;5.232;2023-03-31T16:14:56;3.80;;;2.10;;
17598;SDS011;8918;52.092;5.232;2023-03-31T16:20:00;7.20;;;2.23;;
17598;SDS011;8918;52.092;5.232;2023-03-31T16:22:33;2.77;;;2.20;;
17598;SDS011;8918;52.092;5.232;2023-03-31T16:25:12;3.63;;;2.40;;
17598;SDS011;8918;52.092;5.232;2023-03-31T16:27:42;4.60;;;2.40;;
17598;SDS011;8918;52.092;5.232;2023-03-31T16:30:14;6.00;;;3.00;;
17598;SDS011;8918;52.092;5.232;2023-03-31T16:35:36;3.33;;;2.30;;
17598;SDS011;8918;52.092;5.232;2023-03-31T16:38:07;4.20;;;2.20;;
17598;SDS011;8918;52.092;5.232;2023-03-31T16:40:43;4.03;;;2.17;;
17598;SDS011;8918;52.092;5.232;2023-03-31T16:43:11;2.83;;;2.53;;
17598;SDS011;8918;52.092;5.232;2023-03-31T16:45:39;4.07;;;2.30;;
17598;SDS011;8918;52.092;5.232;2023-03-31T16:48:07;3.73;;;2.40;;
17598;SDS011;8918;52.092;5.232;2023-03-31T16:50:33;3.60;;;2.50;;
17598;SDS011;8918;52.092;5.232;2023-03-31T16:52:59;4.97;;;3.00;;
17598;SDS011;8918;52.092;5.232;2023-03-31T16:55:25;4.67;;;2.20;;
17598;SDS011;8918;52.092;5.232;2023-03-31T16:57:51;3.40;;;2.30;;
17598;SDS011;8918;52.092;5.232;2023-03-31T17:00:17;4.20;;;2.60;;
17598;SDS011;8918;52.092;5.232;2023-03-31T17:02:43;5.00;;;2.80;;
17598;SDS011;8918;52.092;5.232;2023-03-31T17:05:10;3.37;;;2.60;;
17598;SDS011;8918;52.092;5.232;2023-03-31T17:07:35;5.83;;;3.07;;
17598;SDS011;8918;52.092;5.232;2023-03-31T17:10:01;3.53;;;3.00;;
17598;SDS011;8918;52.092;5.232;2023-03-31T17:12:27;3.70;;;3.27;;
17598;SDS011;8918;52.092;5.232;2023-03-31T17:14:52;5.03;;;2.97;;
17598;SDS011;8918;52.092;5.232;2023-03-31T17:17:18;3.57;;;2.67;;
17598;SDS011;8918;52.092;5.232;2023-03-31T17:19:44;3.87;;;3.07;;
17598;SDS011;8918;52.092;5.232;2023-03-31T17:22:10;4.77;;;3.37;;
17598;SDS011;8918;52.092;5.232;2023-03-31T17:24:36;3.90;;;3.10;;
17598;SDS011;8918;52.092;5.232;2023-03-31T17:27:01;5.43;;;3.23;;
17598;SDS011;8918;52.092;5.232;2023-03-31T17:29:27;4.77;;;2.80;;
17598;SDS011;8918;52.092;5.232;2023-03-31T17:31:52;3.83;;;3.27;;
17598;SDS011;8918;52.092;5.232;2023-03-31T17:34:18;4.33;;;3.17;;
17598;SDS011;8918;52.092;5.232;2023-03-31T17:36:45;3.03;;;2.73;;
17598;SDS011;8918;52.092;5.232;2023-03-31T17:39:11;4.73;;;3.40;;
17598;SDS011;8918;52.092;5.232;2023-03-31T17:41:36;4.00;;;3.33;;
17598;SDS011;8918;52.092;5.232;2023-03-31T17:44:02;4.47;;;2.80;;
17598;SDS011;8918;52.092;5.232;2023-03-31T17:46:28;3.00;;;2.70;;
17598;SDS011;8918;52.092;5.232;2023-03-31T17:48:54;6.13;;;3.63;;
17598;SDS011;8918;52.092;5.232;2023-03-31T17:51:22;3.57;;;3.10;;
17598;SDS011;8918;52.092;5.232;2023-03-31T17:53:48;4.27;;;3.50;;
17598;SDS011;8918;52.092;5.232;2023-03-31T17:56:14;3.87;;;3.00;;
17598;SDS011;8918;52.092;5.232;2023-03-31T17:58:40;4.40;;;3.00;;
17598;SDS011;8918;52.092;5.232;2023-03-31T18:01:07;3.80;;;2.83;;
17598;SDS011;8918;52.092;5.232;2023-03-31T18:03:35;4.00;;;2.80;;
17598;SDS011;8918;52.092;5.232;2023-03-31T18:06:10;4.53;;;3.27;;
17598;SDS011;8918;52.092;5.232;2023-03-31T18:08:37;4.97;;;3.43;;
17598;SDS011;8918;52.092;5.232;2023-03-31T18:11:05;3.37;;;3.00;;
17598;SDS011;8918;52.092;5.232;2023-03-31T18:13:32;5.47;;;3.23;;
17598;SDS011;8918;52.092;5.232;2023-03-31T18:16:00;4.60;;;3.70;;
17598;SDS011;8918;52.092;5.232;2023-03-31T18:18:26;3.53;;;3.23;;
17598;SDS011;8918;52.092;5.232;2023-03-31T18:20:53;4.33;;;3.60;;
17598;SDS011;8918;52.092;5.232;2023-03-31T18:23:19;5.40;;;3.80;;
17598;SDS011;8918;52.092;5.232;2023-03-31T18:25:45;5.97;;;3.70;;
17598;SDS011;8918;52.092;5.232;2023-03-31T18:28:11;7.70;;;4.20;;
17598;SDS011;8918;52.092;5.232;2023-03-31T18:30:37;7.33;;;4.00;;
17598;SDS011;8918;52.092;5.232;2023-03-31T18:33:03;6.03;;;4.20;;